createdAt,value
2018-06-16T00:00:35.342Z,13.28
2018-06-16T00:01:35.248Z,13.24
2018-06-16T00:02:35.190Z,13.27
2018-06-16T00:03:35.076Z,13.32
2018-06-16T00:04:34.980Z,13.25
2018-06-16T00:05:34.983Z,13.35
2018-06-16T00:06:34.797Z,13.29
2018-06-16T00:07:34.738Z,13.31
2018-06-16T00:08:34.618Z,13.36
2018-06-16T00:09:34.528Z,13.39
2018-06-16T00:10:34.436Z,13.44
2018-06-16T00:11:34.344Z,13.55
2018-06-16T00:12:34.378Z,13.63
2018-06-16T00:13:34.164Z,13.66
2018-06-16T00:14:34.076Z,13.69
2018-06-16T00:15:33.985Z,13.72
2018-06-16T00:16:33.896Z,13.75
2018-06-16T00:17:33.832Z,13.88
2018-06-16T00:18:33.848Z,13.98
2018-06-16T00:19:33.622Z,13.98
2018-06-16T00:20:33.532Z,13.98
2018-06-16T00:21:33.442Z,14.06
2018-06-16T00:22:33.384Z,14.09
2018-06-16T00:23:33.260Z,14.12
2018-06-16T00:24:33.168Z,14.23
2018-06-16T00:25:33.076Z,14.17
2018-06-16T00:26:32.990Z,14.27
2018-06-16T00:27:32.934Z,14.29
2018-06-16T00:28:32.810Z,14.29
2018-06-16T00:29:32.718Z,14.36
2018-06-16T00:30:32.629Z,14.44
2018-06-16T00:31:32.539Z,14.44
2018-06-16T00:32:32.476Z,14.57
2018-06-16T00:33:32.361Z,14.44
2018-06-16T00:34:32.266Z,14.54
2018-06-16T00:35:32.175Z,14.57
2018-06-16T00:36:32.084Z,14.60
2018-06-16T00:37:32.026Z,14.63
2018-06-16T00:38:31.910Z,14.61
2018-06-16T00:39:31.814Z,14.71
2018-06-16T00:40:31.728Z,14.71
2018-06-16T00:41:31.636Z,14.74
2018-06-16T00:42:31.545Z,14.74
2018-06-16T00:43:31.491Z,14.75
2018-06-16T00:44:31.362Z,14.85
2018-06-16T00:45:31.270Z,14.79
2018-06-16T00:46:31.183Z,14.86
2018-06-16T00:47:31.094Z,14.87
2018-06-16T00:48:31.032Z,14.93
2018-06-16T00:49:30.911Z,14.86
2018-06-16T00:50:30.823Z,14.80
2018-06-16T00:51:30.781Z,14.83
2018-06-16T00:52:30.647Z,14.82
2018-06-16T00:53:30.585Z,14.69
2018-06-16T00:54:30.462Z,14.75
2018-06-16T00:55:30.375Z,14.64
2018-06-16T00:56:30.284Z,14.61
2018-06-16T00:57:30.196Z,14.63
2018-06-16T00:58:30.135Z,14.53
2018-06-16T00:59:30.028Z,14.57
2018-06-16T01:00:29.927Z,14.45
2018-06-16T01:01:29.837Z,14.48
2018-06-16T01:02:29.746Z,14.54
2018-06-16T01:03:29.690Z,14.45
2018-06-16T01:04:30.265Z,14.44
2018-06-16T01:05:29.478Z,14.44
2018-06-16T01:06:29.384Z,14.41
2018-06-16T01:07:29.292Z,14.36
2018-06-16T01:08:29.238Z,14.42
2018-06-16T01:09:29.117Z,14.44
2018-06-16T01:10:29.026Z,14.34
2018-06-16T01:11:28.939Z,14.34
2018-06-16T01:12:28.845Z,14.34
2018-06-16T01:13:28.790Z,14.34
2018-06-16T01:14:28.669Z,14.38
2018-06-16T01:15:28.573Z,14.44
2018-06-16T01:16:28.488Z,14.35
2018-06-16T01:17:28.396Z,14.49
2018-06-16T01:18:28.339Z,14.54
2018-06-16T01:19:28.216Z,14.64
2018-06-16T01:20:28.129Z,14.64
2018-06-16T01:21:28.035Z,14.75
2018-06-16T01:22:27.946Z,14.69
2018-06-16T01:23:27.888Z,14.72
2018-06-16T01:24:27.766Z,14.61
2018-06-16T01:25:27.678Z,14.60
2018-06-16T01:26:27.587Z,14.66
2018-06-16T01:27:27.497Z,14.71
2018-06-16T01:28:27.439Z,14.69
2018-06-16T01:29:27.319Z,14.78
2018-06-16T01:30:27.225Z,14.79
2018-06-16T01:31:27.154Z,14.87
2018-06-16T01:32:27.048Z,14.82
2018-06-16T01:33:26.992Z,14.79
2018-06-16T01:34:26.868Z,14.86
2018-06-16T01:35:26.779Z,14.91
2018-06-16T01:36:26.689Z,14.93
2018-06-16T01:37:26.597Z,14.82
2018-06-16T01:38:26.540Z,14.91
2018-06-16T01:39:26.418Z,14.90
2018-06-16T01:40:26.327Z,14.87
2018-06-16T01:41:26.236Z,14.91
2018-06-16T01:42:26.150Z,14.90
2018-06-16T01:43:26.098Z,14.93
2018-06-16T01:44:25.972Z,14.94
2018-06-16T01:45:25.880Z,14.93
2018-06-16T01:46:25.792Z,14.91
2018-06-16T01:47:25.700Z,14.80
2018-06-16T01:48:25.643Z,14.80
2018-06-16T01:49:25.520Z,14.69
2018-06-16T01:50:25.432Z,14.72
2018-06-16T01:51:25.340Z,14.83
2018-06-16T01:52:25.253Z,14.69
2018-06-16T01:53:25.196Z,14.80
2018-06-16T01:54:25.071Z,14.86
2018-06-16T01:55:24.982Z,14.86
2018-06-16T01:56:24.980Z,14.80
2018-06-16T01:57:24.801Z,14.83
2018-06-16T01:58:24.741Z,14.75
2018-06-16T01:59:24.621Z,14.78
2018-06-16T02:00:24.533Z,14.91
2018-06-16T02:01:24.444Z,14.93
2018-06-16T02:02:24.351Z,14.93
2018-06-16T02:03:24.406Z,14.91
2018-06-16T02:04:24.175Z,14.98
2018-06-16T02:05:24.083Z,14.90
2018-06-16T02:06:23.994Z,14.91
2018-06-16T02:07:23.907Z,14.90
2018-06-16T02:08:23.818Z,14.93
2018-06-16T02:09:23.752Z,14.91
2018-06-16T02:10:23.724Z,14.75
2018-06-16T02:11:23.543Z,14.79
2018-06-16T02:12:23.451Z,14.71
2018-06-16T02:13:23.368Z,14.71
2018-06-16T02:14:23.305Z,14.78
2018-06-16T02:15:23.184Z,14.71
2018-06-16T02:16:23.094Z,14.60
2018-06-16T02:17:23.096Z,14.56
2018-06-16T02:18:22.919Z,14.53
2018-06-16T02:19:22.857Z,14.59
2018-06-16T02:20:22.742Z,14.64
2018-06-16T02:21:22.642Z,14.60
2018-06-16T02:22:22.553Z,14.57
2018-06-16T02:23:22.467Z,14.60
2018-06-16T02:24:22.487Z,14.42
2018-06-16T02:25:22.287Z,14.48
2018-06-16T02:26:22.198Z,14.45
2018-06-16T02:27:22.107Z,14.46
2018-06-16T02:28:22.020Z,14.42
2018-06-16T02:29:21.958Z,14.41
2018-06-16T02:30:21.843Z,14.36
2018-06-16T02:31:21.839Z,14.31
2018-06-16T02:32:21.657Z,14.21
2018-06-16T02:33:21.568Z,14.30
2018-06-16T02:34:21.513Z,14.16
2018-06-16T02:35:21.390Z,14.19
2018-06-16T02:36:21.297Z,14.23
2018-06-16T02:37:21.205Z,14.13
2018-06-16T02:38:21.212Z,14.20
2018-06-16T02:39:21.061Z,14.05
2018-06-16T02:40:20.940Z,14.12
2018-06-16T02:41:20.851Z,14.16
2018-06-16T02:42:20.759Z,14.01
2018-06-16T02:43:20.667Z,14.02
2018-06-16T02:44:20.615Z,14.06
2018-06-16T02:45:20.593Z,13.94
2018-06-16T02:46:20.403Z,13.99
2018-06-16T02:47:20.310Z,14.02
2018-06-16T02:48:20.226Z,13.90
2018-06-16T02:49:20.163Z,13.86
2018-06-16T02:50:20.124Z,13.88
2018-06-16T02:51:19.952Z,13.86
2018-06-16T02:52:19.950Z,13.86
2018-06-16T02:53:19.773Z,13.83
2018-06-16T02:54:19.715Z,13.84
2018-06-16T02:55:19.609Z,13.86
2018-06-16T02:56:19.503Z,13.87
2018-06-16T02:57:19.413Z,13.79
2018-06-16T02:58:19.320Z,13.86
2018-06-16T02:59:19.357Z,13.83
2018-06-16T03:00:19.146Z,13.91
2018-06-16T03:01:19.057Z,13.90
2018-06-16T03:02:18.964Z,13.86
2018-06-16T03:03:18.929Z,13.81
2018-06-16T03:04:18.814Z,13.93
2018-06-16T03:05:18.691Z,13.93
2018-06-16T03:06:18.689Z,13.96
2018-06-16T03:07:18.513Z,13.87
2018-06-16T03:08:18.423Z,13.93
2018-06-16T03:09:18.363Z,13.88
2018-06-16T03:10:18.245Z,13.88
2018-06-16T03:11:18.155Z,13.84
2018-06-16T03:12:18.063Z,14.02
2018-06-16T03:13:18.070Z,13.93
2018-06-16T03:14:17.914Z,14.04
2018-06-16T03:15:17.792Z,13.96
2018-06-16T03:16:17.704Z,14.06
2018-06-16T03:17:17.616Z,14.11
2018-06-16T03:18:17.525Z,14.20
2018-06-16T03:19:17.466Z,14.19
2018-06-16T03:20:17.343Z,14.11
2018-06-16T03:21:17.252Z,14.20
2018-06-16T03:22:17.162Z,14.19
2018-06-16T03:23:17.077Z,14.20
2018-06-16T03:24:17.017Z,14.20
2018-06-16T03:25:16.894Z,14.13
2018-06-16T03:26:16.801Z,14.21
2018-06-16T03:27:16.712Z,14.23
2018-06-16T03:28:16.625Z,14.17
2018-06-16T03:29:16.572Z,14.23
2018-06-16T03:30:16.443Z,14.20
2018-06-16T03:31:16.357Z,14.23
2018-06-16T03:32:16.263Z,14.19
2018-06-16T03:33:16.172Z,14.24
2018-06-16T03:34:16.118Z,14.19
2018-06-16T03:35:15.995Z,14.30
2018-06-16T03:36:15.927Z,14.35
2018-06-16T03:37:15.825Z,14.36
2018-06-16T03:38:15.725Z,14.45
2018-06-16T03:39:15.633Z,14.35
2018-06-16T03:40:15.575Z,14.36
2018-06-16T03:41:15.454Z,14.38
2018-06-16T03:42:15.362Z,14.46
2018-06-16T03:43:15.274Z,14.52
2018-06-16T03:44:15.185Z,14.48
2018-06-16T03:45:15.130Z,14.59
2018-06-16T03:46:15.005Z,14.61
2018-06-16T03:47:14.933Z,14.63
2018-06-16T03:48:14.825Z,14.74
2018-06-16T03:49:14.735Z,14.74
2018-06-16T03:50:14.741Z,14.82
2018-06-16T03:51:14.557Z,14.86
2018-06-16T03:52:14.469Z,14.87
2018-06-16T03:53:14.376Z,14.86
2018-06-16T03:54:14.289Z,14.94
2018-06-16T03:55:14.237Z,14.93
2018-06-16T03:56:14.106Z,14.94
2018-06-16T03:57:14.018Z,14.97
2018-06-16T03:58:13.927Z,15.01
2018-06-16T03:59:13.844Z,15.05
2018-06-16T04:00:13.781Z,15.09
2018-06-16T04:01:13.659Z,15.12
2018-06-16T04:02:13.570Z,15.03
2018-06-16T04:03:13.478Z,15.18
2018-06-16T04:04:13.391Z,15.16
2018-06-16T04:05:13.331Z,15.18
2018-06-16T04:06:13.211Z,15.19
2018-06-16T04:07:13.121Z,15.18
2018-06-16T04:08:13.032Z,15.13
2018-06-16T04:09:12.941Z,15.20
2018-06-16T04:10:12.882Z,15.23
2018-06-16T04:11:12.762Z,15.19
2018-06-16T04:12:12.674Z,15.23
2018-06-16T04:13:12.586Z,15.25
2018-06-16T04:14:12.497Z,15.19
2018-06-16T04:15:12.434Z,15.33
2018-06-16T04:16:12.313Z,15.35
2018-06-16T04:17:12.225Z,15.30
2018-06-16T04:18:12.138Z,15.31
2018-06-16T04:19:12.050Z,15.31
2018-06-16T04:20:11.991Z,15.35
2018-06-16T04:21:11.868Z,15.31
2018-06-16T04:22:11.777Z,15.44
2018-06-16T04:23:11.692Z,15.46
2018-06-16T04:24:11.603Z,15.49
2018-06-16T04:25:11.540Z,15.41
2018-06-16T04:26:11.420Z,15.52
2018-06-16T04:27:11.332Z,15.64
2018-06-16T04:28:11.243Z,15.56
2018-06-16T04:29:11.152Z,15.62
2018-06-16T04:30:11.093Z,15.60
2018-06-16T04:31:10.972Z,15.70
2018-06-16T04:32:10.887Z,15.71
2018-06-16T04:33:10.797Z,15.71
2018-06-16T04:34:10.708Z,15.71
2018-06-16T04:35:10.646Z,15.68
2018-06-16T04:36:10.528Z,15.80
2018-06-16T04:37:10.440Z,15.84
2018-06-16T04:38:10.351Z,15.85
2018-06-16T04:39:10.261Z,15.78
2018-06-16T04:40:10.207Z,15.81
2018-06-16T04:41:10.085Z,15.73
2018-06-16T04:42:09.996Z,15.84
2018-06-16T04:43:09.914Z,15.86
2018-06-16T04:44:09.814Z,15.92
2018-06-16T04:45:09.760Z,15.86
2018-06-16T04:46:09.646Z,15.92
2018-06-16T04:47:09.551Z,15.91
2018-06-16T04:48:09.467Z,15.93
2018-06-16T04:49:09.375Z,15.92
2018-06-16T04:50:09.327Z,15.88
2018-06-16T04:51:09.195Z,15.95
2018-06-16T04:52:09.106Z,15.89
2018-06-16T04:53:09.015Z,15.96
2018-06-16T04:54:08.930Z,16.04
2018-06-16T04:55:08.872Z,16.03
2018-06-16T04:56:08.752Z,16.10
2018-06-16T04:57:08.665Z,16.06
2018-06-16T04:58:08.576Z,16.13
2018-06-16T04:59:08.486Z,16.23
2018-06-16T05:00:08.431Z,16.23
2018-06-16T05:01:08.306Z,16.33
2018-06-16T05:02:08.218Z,16.34
2018-06-16T05:03:08.129Z,16.41
2018-06-16T05:04:08.043Z,16.44
2018-06-16T05:05:07.986Z,16.51
2018-06-16T05:06:07.867Z,16.47
2018-06-16T05:07:07.823Z,16.42
2018-06-16T05:08:07.690Z,16.54
2018-06-16T05:09:07.599Z,16.55
2018-06-16T05:10:07.512Z,16.50
2018-06-16T05:11:07.454Z,16.55
2018-06-16T05:12:07.346Z,16.60
2018-06-16T05:13:07.247Z,16.63
2018-06-16T05:14:07.157Z,16.70
2018-06-16T05:15:07.071Z,16.67
2018-06-16T05:16:07.016Z,16.70
2018-06-16T05:17:06.896Z,16.72
2018-06-16T05:18:06.805Z,16.67
2018-06-16T05:19:06.998Z,16.80
2018-06-16T05:20:06.632Z,16.80
2018-06-16T05:21:06.574Z,16.67
2018-06-16T05:22:06.457Z,16.81
2018-06-16T05:23:06.362Z,16.77
2018-06-16T05:24:06.274Z,16.75
2018-06-16T05:25:06.185Z,16.85
2018-06-16T05:26:06.217Z,16.78
2018-06-16T05:27:06.011Z,16.84
2018-06-16T05:28:05.922Z,16.81
2018-06-16T05:29:05.830Z,16.82
2018-06-16T05:30:05.747Z,16.82
2018-06-16T05:31:05.689Z,16.88
2018-06-16T05:32:05.566Z,16.84
2018-06-16T05:33:05.568Z,16.87
2018-06-16T05:34:05.388Z,16.84
2018-06-16T05:35:05.305Z,16.88
2018-06-16T05:36:05.243Z,16.88
2018-06-16T05:37:05.124Z,16.95
2018-06-16T05:38:05.037Z,16.88
2018-06-16T05:39:04.949Z,16.95
2018-06-16T05:40:04.951Z,16.99
2018-06-16T05:41:04.803Z,16.98
2018-06-16T05:42:04.685Z,17.03
2018-06-16T05:43:04.597Z,17.00
2018-06-16T05:44:04.517Z,16.99
2018-06-16T05:45:04.422Z,17.09
2018-06-16T05:46:04.366Z,17.03
2018-06-16T05:47:04.337Z,17.15
2018-06-16T05:48:04.156Z,17.15
2018-06-16T05:49:04.068Z,17.24
2018-06-16T05:50:03.981Z,17.20
2018-06-16T05:51:03.923Z,17.21
2018-06-16T05:52:03.801Z,17.24
2018-06-16T05:53:03.716Z,17.22
2018-06-16T05:54:03.763Z,17.32
2018-06-16T05:55:03.537Z,17.30
2018-06-16T05:56:03.502Z,17.39
2018-06-16T05:57:03.363Z,17.43
2018-06-16T05:58:03.275Z,17.43
2018-06-16T05:59:03.186Z,17.43
2018-06-16T06:00:03.102Z,17.47
2018-06-16T06:01:03.134Z,17.43
2018-06-16T06:02:02.930Z,17.40
2018-06-16T06:03:02.840Z,17.45
2018-06-16T06:04:02.750Z,17.46
2018-06-16T06:05:02.661Z,17.42
2018-06-16T06:06:02.618Z,17.45
2018-06-16T06:07:02.488Z,17.57
2018-06-16T06:08:02.489Z,17.60
2018-06-16T06:09:02.309Z,17.58
2018-06-16T06:10:02.225Z,17.81
2018-06-16T06:11:02.168Z,17.70
2018-06-16T06:12:02.052Z,17.77
2018-06-16T06:13:01.957Z,17.89
2018-06-16T06:14:01.872Z,17.98
2018-06-16T06:15:01.879Z,18.05
2018-06-16T06:16:01.729Z,18.01
2018-06-16T06:17:01.608Z,18.14
2018-06-16T06:18:01.522Z,18.09
2018-06-16T06:19:01.434Z,18.07
2018-06-16T06:20:01.346Z,18.09
2018-06-16T06:21:01.292Z,18.11
2018-06-16T06:22:01.173Z,18.01
2018-06-16T06:23:01.088Z,18.02
2018-06-16T06:24:00.997Z,18.09
2018-06-16T06:25:00.909Z,18.01
2018-06-16T06:26:00.858Z,18.16
2018-06-16T06:27:00.739Z,18.23
2018-06-16T06:28:00.653Z,18.28
2018-06-16T06:29:00.561Z,18.36
2018-06-16T06:30:00.477Z,18.38
2018-06-16T06:31:00.419Z,18.46
2018-06-16T06:32:00.348Z,18.41
2018-06-16T06:33:00.215Z,18.39
2018-06-16T06:34:00.131Z,18.59
2018-06-16T06:35:00.051Z,18.51
2018-06-16T06:35:59.986Z,18.54
2018-06-16T06:36:59.868Z,18.65
2018-06-16T06:37:59.782Z,18.60
2018-06-16T06:38:59.697Z,18.68
2018-06-16T06:39:59.611Z,18.65
2018-06-16T06:40:59.520Z,18.65
2018-06-16T06:41:59.468Z,18.68
2018-06-16T06:42:59.347Z,18.69
2018-06-16T06:43:59.264Z,18.66
2018-06-16T06:44:59.171Z,18.72
2018-06-16T06:45:59.089Z,18.72
2018-06-16T06:46:59.030Z,18.71
2018-06-16T06:47:58.913Z,18.75
2018-06-16T06:48:58.823Z,18.84
2018-06-16T06:49:58.744Z,18.86
2018-06-16T06:50:58.655Z,18.84
2018-06-16T06:51:58.601Z,18.99
2018-06-16T06:52:58.481Z,18.99
2018-06-16T06:53:58.395Z,19.07
2018-06-16T06:54:58.309Z,19.13
2018-06-16T06:55:58.227Z,19.16
2018-06-16T06:56:58.167Z,19.12
2018-06-16T06:57:58.061Z,19.16
2018-06-16T06:58:57.965Z,19.38
2018-06-16T06:59:57.878Z,19.35
2018-06-16T07:00:57.824Z,19.35
2018-06-16T07:01:57.749Z,19.49
2018-06-16T07:02:57.620Z,19.43
2018-06-16T07:03:57.542Z,19.39
2018-06-16T07:04:57.445Z,19.58
2018-06-16T07:05:57.359Z,19.58
2018-06-16T07:06:57.306Z,19.76
2018-06-16T07:07:57.190Z,19.86
2018-06-16T07:08:57.201Z,20.00
2018-06-16T07:09:57.015Z,20.15
2018-06-16T07:10:57.011Z,20.25
2018-06-16T07:11:56.879Z,20.31
2018-06-16T07:12:56.760Z,20.44
2018-06-16T07:13:56.678Z,20.38
2018-06-16T07:14:56.589Z,20.22
2018-06-16T07:15:56.596Z,20.23
2018-06-16T07:16:56.450Z,20.23
2018-06-16T07:17:56.335Z,20.12
2018-06-16T07:18:56.248Z,20.08
2018-06-16T07:19:56.168Z,20.27
2018-06-16T07:20:56.080Z,20.33
2018-06-16T07:21:56.024Z,20.38
2018-06-16T07:22:56.002Z,20.33
2018-06-16T07:23:55.827Z,20.46
2018-06-16T07:24:55.741Z,20.51
2018-06-16T07:25:55.654Z,20.54
2018-06-16T07:26:55.601Z,20.60
2018-06-16T07:27:55.485Z,20.27
2018-06-16T07:28:55.399Z,20.41
2018-06-16T07:29:55.409Z,20.56
2018-06-16T07:30:55.232Z,20.56
2018-06-16T07:31:55.178Z,20.83
2018-06-16T07:32:55.072Z,20.98
2018-06-16T07:33:54.975Z,21.12
2018-06-16T07:34:54.891Z,21.31
2018-06-16T07:35:54.808Z,21.42
2018-06-16T07:36:54.846Z,21.59
2018-06-16T07:37:54.639Z,21.51
2018-06-16T07:38:54.563Z,21.16
2018-06-16T07:39:54.476Z,20.88
2018-06-16T07:40:54.389Z,20.73
2018-06-16T07:41:54.334Z,20.88
2018-06-16T07:42:54.219Z,21.15
2018-06-16T07:43:54.241Z,21.81
2018-06-16T07:44:54.049Z,22.36
2018-06-16T07:45:53.967Z,22.81
2018-06-16T07:46:53.921Z,22.84
2018-06-16T07:47:53.800Z,22.85
2018-06-16T07:48:53.770Z,22.56
2018-06-16T07:49:53.632Z,22.70
2018-06-16T07:50:53.644Z,22.54
2018-06-16T07:51:53.500Z,22.94
2018-06-16T07:52:53.381Z,22.86
2018-06-16T07:53:53.301Z,23.19
2018-06-16T07:54:53.226Z,23.44
2018-06-16T07:55:53.134Z,23.37
2018-06-16T07:56:53.085Z,23.31
2018-06-16T07:57:53.062Z,22.82
2018-06-16T07:58:52.891Z,22.60
2018-06-16T07:59:52.809Z,22.45
2018-06-16T08:00:52.723Z,22.56
2018-06-16T08:01:52.674Z,23.00
2018-06-16T08:02:52.574Z,23.01
2018-06-16T08:03:52.481Z,23.01
2018-06-16T08:04:52.398Z,23.00
2018-06-16T08:05:52.316Z,22.66
2018-06-16T08:06:52.268Z,22.61
2018-06-16T08:07:52.156Z,22.45
2018-06-16T08:08:52.072Z,22.39
2018-06-16T08:09:51.993Z,22.14
2018-06-16T08:10:51.911Z,22.45
2018-06-16T08:11:51.957Z,22.96
2018-06-16T08:12:51.776Z,22.96
2018-06-16T08:13:51.665Z,22.91
2018-06-16T08:14:51.584Z,23.16
2018-06-16T08:15:51.502Z,23.26
2018-06-16T08:16:51.424Z,23.53
2018-06-16T08:17:51.448Z,23.57
2018-06-16T08:18:51.262Z,23.67
2018-06-16T08:19:51.179Z,23.67
2018-06-16T08:20:51.101Z,23.92
2018-06-16T08:21:51.018Z,23.49
2018-06-16T08:22:50.965Z,23.37
2018-06-16T08:23:50.856Z,23.59
2018-06-16T08:24:50.775Z,23.31
2018-06-16T08:25:50.703Z,23.42
2018-06-16T08:26:50.614Z,23.11
2018-06-16T08:27:50.570Z,23.00
2018-06-16T08:28:50.454Z,23.56
2018-06-16T08:29:50.382Z,23.82
2018-06-16T08:30:50.296Z,24.00
2018-06-16T08:31:50.211Z,24.23
2018-06-16T08:32:50.163Z,24.36
2018-06-16T08:33:50.052Z,24.41
2018-06-16T08:34:50.029Z,24.11
2018-06-16T08:35:49.891Z,23.63
2018-06-16T08:36:49.807Z,23.74
2018-06-16T08:37:49.763Z,23.86
2018-06-16T08:38:49.650Z,24.16
2018-06-16T08:39:49.570Z,23.63
2018-06-16T08:40:49.492Z,23.63
2018-06-16T08:41:49.409Z,24.05
2018-06-16T08:42:49.358Z,24.31
2018-06-16T08:43:49.254Z,24.29
2018-06-16T08:44:49.174Z,24.19
2018-06-16T08:45:49.089Z,24.14
2018-06-16T08:46:49.011Z,24.41
2018-06-16T08:47:48.963Z,24.41
2018-06-16T08:48:48.848Z,24.02
2018-06-16T08:49:48.776Z,24.12
2018-06-16T08:50:48.692Z,23.87
2018-06-16T08:51:48.610Z,23.06
2018-06-16T08:52:48.565Z,22.69
2018-06-16T08:53:48.452Z,23.49
2018-06-16T08:54:48.375Z,24.02
2018-06-16T08:55:48.299Z,23.92
2018-06-16T08:56:48.213Z,23.59
2018-06-16T08:57:48.166Z,23.11
2018-06-16T08:58:48.056Z,22.93
2018-06-16T08:59:47.975Z,22.86
2018-06-16T09:00:47.893Z,22.97
2018-06-16T09:01:47.815Z,23.49
2018-06-16T09:02:47.767Z,23.96
2018-06-16T09:03:47.653Z,24.82
2018-06-16T09:04:47.578Z,25.26
2018-06-16T09:05:47.494Z,25.42
2018-06-16T09:06:47.414Z,25.36
2018-06-16T09:07:47.363Z,25.09
2018-06-16T09:08:47.252Z,24.93
2018-06-16T09:09:47.175Z,24.74
2018-06-16T09:10:47.097Z,24.42
2018-06-16T09:11:47.015Z,24.18
2018-06-16T09:12:46.961Z,24.00
2018-06-16T09:13:46.856Z,24.36
2018-06-16T09:14:46.774Z,24.87
2018-06-16T09:15:46.693Z,25.04
2018-06-16T09:16:46.616Z,25.42
2018-06-16T09:17:46.568Z,25.74
2018-06-16T09:18:46.457Z,26.20
2018-06-16T09:19:46.382Z,26.31
2018-06-16T09:20:46.317Z,26.47
2018-06-16T09:21:46.219Z,26.21
2018-06-16T09:22:46.177Z,26.59
2018-06-16T09:23:46.063Z,26.88
2018-06-16T09:24:45.981Z,26.49
2018-06-16T09:25:45.903Z,25.64
2018-06-16T09:26:45.827Z,25.66
2018-06-16T09:27:45.866Z,25.74
2018-06-16T09:28:45.683Z,26.06
2018-06-16T09:29:45.589Z,26.47
2018-06-16T09:30:45.509Z,26.72
2018-06-16T09:31:45.492Z,26.50
2018-06-16T09:32:45.388Z,26.20
2018-06-16T09:33:45.275Z,25.74
2018-06-16T09:34:45.292Z,25.82
2018-06-16T09:35:45.118Z,25.86
2018-06-16T09:36:45.041Z,25.36
2018-06-16T09:37:44.998Z,24.80
2018-06-16T09:38:44.888Z,24.39
2018-06-16T09:39:44.807Z,24.12
2018-06-16T09:40:44.737Z,24.27
2018-06-16T09:41:44.748Z,24.31
2018-06-16T09:42:44.571Z,23.67
2018-06-16T09:43:44.527Z,23.45
2018-06-16T09:44:44.412Z,22.46
2018-06-16T09:45:44.336Z,22.33
2018-06-16T09:46:44.258Z,22.44
2018-06-16T09:47:44.176Z,22.44
2018-06-16T09:48:44.214Z,22.51
2018-06-16T09:49:44.017Z,23.06
2018-06-16T09:50:43.936Z,23.62
2018-06-16T09:51:43.857Z,23.62
2018-06-16T09:52:43.780Z,23.82
2018-06-16T09:53:43.728Z,24.05
2018-06-16T09:54:43.619Z,23.97
2018-06-16T09:55:43.632Z,24.09
2018-06-16T09:56:43.456Z,23.97
2018-06-16T09:57:43.386Z,23.86
2018-06-16T09:58:43.327Z,23.92
2018-06-16T09:59:43.215Z,23.81
2018-06-16T10:00:43.145Z,23.82
2018-06-16T10:01:43.064Z,23.77
2018-06-16T10:02:43.073Z,23.86
2018-06-16T10:03:42.927Z,23.79
2018-06-16T10:04:42.816Z,23.78
2018-06-16T10:05:42.738Z,23.93
2018-06-16T10:06:42.653Z,23.84
2018-06-16T10:07:42.575Z,23.82
2018-06-16T10:08:42.524Z,23.59
2018-06-16T10:09:42.500Z,23.62
2018-06-16T10:10:42.332Z,23.44
2018-06-16T10:11:42.251Z,23.69
2018-06-16T10:12:42.169Z,23.41
2018-06-16T10:13:42.123Z,23.49
2018-06-16T10:14:42.013Z,23.60
2018-06-16T10:15:41.945Z,23.74
2018-06-16T10:16:41.940Z,24.00
2018-06-16T10:17:41.767Z,24.11
2018-06-16T10:18:41.719Z,24.27
2018-06-16T10:19:41.604Z,24.37
2018-06-16T10:20:41.522Z,24.37
2018-06-16T10:21:41.448Z,24.41
2018-06-16T10:22:41.364Z,24.52
2018-06-16T10:23:41.404Z,24.75
2018-06-16T10:24:41.204Z,24.67
2018-06-16T10:25:41.121Z,24.55
2018-06-16T10:26:41.038Z,24.31
2018-06-16T10:27:40.973Z,24.37
2018-06-16T10:28:40.911Z,24.66
2018-06-16T10:29:40.797Z,25.22
2018-06-16T10:30:40.810Z,25.22
2018-06-16T10:31:40.643Z,24.71
2018-06-16T10:32:40.559Z,24.86
2018-06-16T10:33:40.514Z,25.05
2018-06-16T10:34:40.395Z,25.81
2018-06-16T10:35:40.318Z,26.39
2018-06-16T10:36:40.233Z,27.05
2018-06-16T10:37:40.247Z,26.59
2018-06-16T10:38:40.106Z,25.41
2018-06-16T10:39:40.004Z,25.05
2018-06-16T10:40:39.916Z,24.83
2018-06-16T10:41:39.838Z,25.29
2018-06-16T10:42:39.758Z,25.38
2018-06-16T10:43:39.710Z,25.09
2018-06-16T10:44:39.690Z,24.51
2018-06-16T10:45:39.518Z,24.41
2018-06-16T10:46:39.440Z,24.66
2018-06-16T10:47:39.360Z,24.29
2018-06-16T10:48:39.313Z,24.00
2018-06-16T10:49:39.202Z,24.70
2018-06-16T10:50:39.141Z,24.53
2018-06-16T10:51:39.042Z,24.29
2018-06-16T10:52:38.963Z,24.21
2018-06-16T10:53:38.915Z,24.24
2018-06-16T10:54:38.802Z,24.16
2018-06-16T10:55:38.724Z,24.67
2018-06-16T10:56:38.642Z,25.05
2018-06-16T10:57:38.563Z,25.22
2018-06-16T10:58:38.515Z,24.82
2018-06-16T10:59:38.402Z,24.15
2018-06-16T11:00:38.325Z,24.31
2018-06-16T11:01:38.247Z,24.30
2018-06-16T11:02:38.162Z,24.67
2018-06-16T11:03:38.118Z,24.52
2018-06-16T11:04:38.005Z,24.52
2018-06-16T11:05:37.924Z,24.30
2018-06-16T11:06:37.844Z,24.71
2018-06-16T11:07:37.769Z,25.02
2018-06-16T11:08:37.716Z,25.31
2018-06-16T11:09:37.609Z,25.85
2018-06-16T11:10:37.527Z,26.16
2018-06-16T11:11:37.453Z,26.31
2018-06-16T11:12:37.367Z,26.60
2018-06-16T11:13:37.288Z,26.76
2018-06-16T11:14:37.240Z,26.73
2018-06-16T11:15:37.131Z,27.15
2018-06-16T11:16:37.049Z,26.71
2018-06-16T11:17:36.975Z,26.24
2018-06-16T11:18:36.896Z,26.12
2018-06-16T11:19:36.844Z,25.89
2018-06-16T11:20:36.734Z,26.20
2018-06-16T11:21:36.660Z,26.53
2018-06-16T11:22:36.577Z,26.54
2018-06-16T11:23:36.502Z,26.01
2018-06-16T11:24:36.452Z,25.98
2018-06-16T11:25:36.343Z,25.71
2018-06-16T11:26:36.265Z,25.81
2018-06-16T11:27:36.185Z,26.41
2018-06-16T11:28:36.109Z,26.65
2018-06-16T11:29:36.059Z,26.46
2018-06-16T11:30:35.950Z,26.46
2018-06-16T11:31:35.871Z,26.71
2018-06-16T11:32:35.793Z,27.12
2018-06-16T11:33:35.715Z,27.12
2018-06-16T11:34:35.672Z,27.09
2018-06-16T11:35:35.564Z,26.57
2018-06-16T11:36:35.482Z,25.74
2018-06-16T11:37:35.407Z,25.54
2018-06-16T11:38:35.329Z,25.20
2018-06-16T11:39:35.286Z,25.19
2018-06-16T11:40:35.168Z,25.05
2018-06-16T11:41:35.092Z,24.89
2018-06-16T11:42:35.017Z,24.29
2018-06-16T11:43:34.941Z,23.89
2018-06-16T11:44:34.889Z,24.00
2018-06-16T11:45:34.783Z,24.12
2018-06-16T11:46:34.702Z,24.37
2018-06-16T11:47:34.622Z,24.49
2018-06-16T11:48:34.544Z,24.19
2018-06-16T11:49:34.498Z,24.87
2018-06-16T11:50:34.385Z,25.20
2018-06-16T11:51:34.308Z,25.61
2018-06-16T11:52:34.228Z,25.36
2018-06-16T11:53:34.149Z,25.63
2018-06-16T11:54:34.100Z,25.59
2018-06-16T11:55:33.993Z,25.86
2018-06-16T11:56:33.912Z,26.01
2018-06-16T11:57:33.865Z,25.85
2018-06-16T11:58:33.753Z,25.30
2018-06-16T11:59:33.707Z,25.61
2018-06-16T12:00:33.596Z,25.67
2018-06-16T12:01:33.520Z,25.63
2018-06-16T12:02:33.440Z,25.83
2018-06-16T12:03:33.361Z,26.03
2018-06-16T12:04:33.313Z,26.21
2018-06-16T12:05:33.202Z,26.19
2018-06-16T12:06:33.122Z,26.64
2018-06-16T12:07:33.044Z,27.06
2018-06-16T12:08:32.965Z,26.86
2018-06-16T12:09:32.921Z,27.09
2018-06-16T12:10:32.809Z,27.39
2018-06-16T12:11:32.731Z,27.46
2018-06-16T12:12:32.651Z,27.13
2018-06-16T12:13:32.574Z,26.59
2018-06-16T12:14:32.526Z,26.65
2018-06-16T12:15:32.422Z,26.38
2018-06-16T12:16:32.342Z,26.28
2018-06-16T12:17:32.261Z,26.57
2018-06-16T12:18:32.187Z,26.59
2018-06-16T12:19:32.139Z,26.56
2018-06-16T12:20:32.030Z,26.73
2018-06-16T12:21:31.948Z,26.76
2018-06-16T12:22:31.963Z,26.90
2018-06-16T12:23:31.794Z,26.51
2018-06-16T12:24:31.749Z,26.50
2018-06-16T12:25:31.636Z,26.35
2018-06-16T12:26:31.562Z,26.69
2018-06-16T12:27:31.484Z,27.02
2018-06-16T12:28:31.409Z,27.40
2018-06-16T12:29:31.449Z,27.35
2018-06-16T12:30:31.251Z,27.11
2018-06-16T12:31:31.172Z,26.94
2018-06-16T12:32:31.096Z,26.24
2018-06-16T12:33:31.018Z,26.06
2018-06-16T12:34:30.971Z,26.09
2018-06-16T12:35:30.865Z,26.54
2018-06-16T12:36:30.874Z,26.71
2018-06-16T12:37:30.709Z,26.50
2018-06-16T12:38:30.629Z,26.71
2018-06-16T12:39:30.584Z,25.97
2018-06-16T12:40:30.474Z,25.74
2018-06-16T12:41:30.400Z,25.63
2018-06-16T12:42:30.321Z,26.08
2018-06-16T12:43:30.340Z,26.27
2018-06-16T12:44:30.208Z,26.34
2018-06-16T12:45:30.090Z,25.53
2018-06-16T12:46:30.016Z,25.82
2018-06-16T12:47:29.937Z,25.08
2018-06-16T12:48:29.856Z,25.57
2018-06-16T12:49:29.805Z,25.48
2018-06-16T12:50:29.820Z,25.46
2018-06-16T12:51:29.623Z,25.69